sensor_id;sensor_type;location;lat;lon;timestamp;P1;durP1;ratioP1;P2;durP2;ratioP2
51296;SDS011;37380;45.186;9.792;2024-02-21T00:01:16;141.82;;;103.65;;
51296;SDS011;37380;45.186;9.792;2024-02-21T00:03:44;143.15;;;104.53;;
51296;SDS011;37380;45.186;9.792;2024-02-21T00:06:11;138.13;;;100.05;;
51296;SDS011;37380;45.186;9.792;2024-02-21T00:08:38;133.20;;;94.78;;
51296;SDS011;37380;45.186;9.792;2024-02-21T00:11:05;136.50;;;96.60;;
51296;SDS011;37380;45.186;9.792;2024-02-21T00:13:32;119.88;;;88.28;;
51296;SDS011;37380;45.186;9.792;2024-02-21T00:16:00;114.93;;;82.55;;
51296;SDS011;37380;45.186;9.792;2024-02-21T00:18:28;112.43;;;80.25;;
51296;SDS011;37380;45.186;9.792;2024-02-21T00:20:56;101.60;;;77.07;;
51296;SDS011;37380;45.186;9.792;2024-02-21T00:23:23;92.55;;;69.45;;
51296;SDS011;37380;45.186;9.792;2024-02-21T00:25:50;79.05;;;64.78;;
51296;SDS011;37380;45.186;9.792;2024-02-21T00:28:17;85.95;;;64.90;;
51296;SDS011;37380;45.186;9.792;2024-02-21T00:30:45;93.15;;;72.40;;
51296;SDS011;37380;45.186;9.792;2024-02-21T00:33:14;92.43;;;69.50;;
51296;SDS011;37380;45.186;9.792;2024-02-21T00:35:41;81.45;;;60.83;;
51296;SDS011;37380;45.186;9.792;2024-02-21T00:38:08;81.43;;;63.53;;
51296;SDS011;37380;45.186;9.792;2024-02-21T00:40:35;117.40;;;82.88;;
51296;SDS011;37380;45.186;9.792;2024-02-21T00:43:02;108.60;;;80.72;;
51296;SDS011;37380;45.186;9.792;2024-02-21T00:45:29;90.38;;;71.32;;
51296;SDS011;37380;45.186;9.792;2024-02-21T00:47:56;89.55;;;67.63;;
51296;SDS011;37380;45.186;9.792;2024-02-21T00:50:23;93.22;;;69.43;;
51296;SDS011;37380;45.186;9.792;2024-02-21T00:52:51;120.30;;;84.50;;
51296;SDS011;37380;45.186;9.792;2024-02-21T00:55:18;97.30;;;76.07;;
51296;SDS011;37380;45.186;9.792;2024-02-21T00:57:45;101.93;;;80.90;;
51296;SDS011;37380;45.186;9.792;2024-02-21T01:00:12;100.43;;;77.13;;
51296;SDS011;37380;45.186;9.792;2024-02-21T01:02:40;93.93;;;74.00;;
51296;SDS011;37380;45.186;9.792;2024-02-21T01:05:07;95.80;;;76.28;;
51296;SDS011;37380;45.186;9.792;2024-02-21T01:07:34;105.80;;;77.40;;
51296;SDS011;37380;45.186;9.792;2024-02-21T01:10:01;114.13;;;86.18;;
51296;SDS011;37380;45.186;9.792;2024-02-21T01:12:28;127.93;;;94.72;;
51296;SDS011;37380;45.186;9.792;2024-02-21T01:14:55;118.68;;;87.53;;
51296;SDS011;37380;45.186;9.792;2024-02-21T01:17:22;97.85;;;72.50;;
51296;SDS011;37380;45.186;9.792;2024-02-21T01:19:49;96.10;;;69.18;;
51296;SDS011;37380;45.186;9.792;2024-02-21T01:22:16;99.45;;;78.15;;
51296;SDS011;37380;45.186;9.792;2024-02-21T01:24:43;85.35;;;66.32;;
51296;SDS011;37380;45.186;9.792;2024-02-21T01:27:10;92.40;;;73.85;;
51296;SDS011;37380;45.186;9.792;2024-02-21T01:29:38;86.97;;;71.30;;
51296;SDS011;37380;45.186;9.792;2024-02-21T01:32:05;108.00;;;80.18;;
51296;SDS011;37380;45.186;9.792;2024-02-21T01:34:32;108.28;;;79.75;;
51296;SDS011;37380;45.186;9.792;2024-02-21T01:36:59;102.25;;;78.38;;
51296;SDS011;37380;45.186;9.792;2024-02-21T01:39:30;101.13;;;77.00;;
51296;SDS011;37380;45.186;9.792;2024-02-21T01:41:57;98.90;;;74.80;;
51296;SDS011;37380;45.186;9.792;2024-02-21T01:44:25;91.30;;;66.95;;
51296;SDS011;37380;45.186;9.792;2024-02-21T01:46:52;81.63;;;64.63;;
51296;SDS011;37380;45.186;9.792;2024-02-21T01:49:20;82.07;;;62.70;;
51296;SDS011;37380;45.186;9.792;2024-02-21T01:51:48;90.47;;;66.22;;
51296;SDS011;37380;45.186;9.792;2024-02-21T01:54:17;78.20;;;59.92;;
51296;SDS011;37380;45.186;9.792;2024-02-21T01:56:45;88.43;;;64.47;;
51296;SDS011;37380;45.186;9.792;2024-02-21T01:59:14;74.85;;;61.65;;
51296;SDS011;37380;45.186;9.792;2024-02-21T02:01:43;78.40;;;61.97;;
51296;SDS011;37380;45.186;9.792;2024-02-21T02:04:11;83.90;;;66.15;;
51296;SDS011;37380;45.186;9.792;2024-02-21T02:06:38;87.95;;;68.93;;
51296;SDS011;37380;45.186;9.792;2024-02-21T02:09:05;89.88;;;69.65;;
51296;SDS011;37380;45.186;9.792;2024-02-21T02:11:32;85.82;;;66.97;;
51296;SDS011;37380;45.186;9.792;2024-02-21T02:14:00;77.80;;;63.28;;
51296;SDS011;37380;45.186;9.792;2024-02-21T02:16:27;84.93;;;67.32;;
51296;SDS011;37380;45.186;9.792;2024-02-21T02:18:54;126.75;;;72.55;;
51296;SDS011;37380;45.186;9.792;2024-02-21T02:21:35;96.47;;;68.35;;
51296;SDS011;37380;45.186;9.792;2024-02-21T02:24:07;135.63;;;87.82;;
51296;SDS011;37380;45.186;9.792;2024-02-21T02:26:34;148.45;;;95.00;;
51296;SDS011;37380;45.186;9.792;2024-02-21T02:29:01;118.10;;;88.25;;
51296;SDS011;37380;45.186;9.792;2024-02-21T02:31:29;154.32;;;86.65;;
51296;SDS011;37380;45.186;9.792;2024-02-21T02:33:56;110.30;;;76.57;;
51296;SDS011;37380;45.186;9.792;2024-02-21T02:36:23;95.45;;;70.65;;
51296;SDS011;37380;45.186;9.792;2024-02-21T02:38:50;140.50;;;68.28;;
51296;SDS011;37380;45.186;9.792;2024-02-21T02:41:17;162.35;;;68.57;;
51296;SDS011;37380;45.186;9.792;2024-02-21T02:43:44;135.50;;;80.22;;
51296;SDS011;37380;45.186;9.792;2024-02-21T02:46:11;174.85;;;92.05;;
51296;SDS011;37380;45.186;9.792;2024-02-21T02:48:37;209.48;;;94.95;;
51296;SDS011;37380;45.186;9.792;2024-02-21T02:51:05;352.05;;;92.05;;
51296;SDS011;37380;45.186;9.792;2024-02-21T02:53:33;290.27;;;98.35;;
51296;SDS011;37380;45.186;9.792;2024-02-21T02:56:00;282.20;;;94.28;;
51296;SDS011;37380;45.186;9.792;2024-02-21T02:58:28;285.77;;;91.57;;
51296;SDS011;37380;45.186;9.792;2024-02-21T03:00:55;246.25;;;96.45;;
51296;SDS011;37380;45.186;9.792;2024-02-21T03:03:22;197.23;;;91.45;;
51296;SDS011;37380;45.186;9.792;2024-02-21T03:05:49;124.50;;;81.68;;
51296;SDS011;37380;45.186;9.792;2024-02-21T03:08:17;126.05;;;78.72;;
51296;SDS011;37380;45.186;9.792;2024-02-21T03:10:43;88.60;;;70.03;;
51296;SDS011;37380;45.186;9.792;2024-02-21T03:13:11;63.33;;;55.72;;
51296;SDS011;37380;45.186;9.792;2024-02-21T03:15:38;61.10;;;50.70;;
51296;SDS011;37380;45.186;9.792;2024-02-21T03:18:06;56.63;;;49.45;;
51296;SDS011;37380;45.186;9.792;2024-02-21T03:20:33;56.15;;;48.65;;
51296;SDS011;37380;45.186;9.792;2024-02-21T03:23:00;60.97;;;46.53;;
51296;SDS011;37380;45.186;9.792;2024-02-21T03:25:27;70.68;;;49.03;;
51296;SDS011;37380;45.186;9.792;2024-02-21T03:27:53;76.97;;;52.60;;
51296;SDS011;37380;45.186;9.792;2024-02-21T03:30:20;133.20;;;62.35;;
51296;SDS011;37380;45.186;9.792;2024-02-21T03:32:48;95.03;;;55.17;;
51296;SDS011;37380;45.186;9.792;2024-02-21T03:35:15;122.95;;;60.15;;
51296;SDS011;37380;45.186;9.792;2024-02-21T03:37:42;123.85;;;59.67;;
51296;SDS011;37380;45.186;9.792;2024-02-21T03:40:11;202.80;;;66.72;;
51296;SDS011;37380;45.186;9.792;2024-02-21T03:42:39;215.88;;;73.15;;
51296;SDS011;37380;45.186;9.792;2024-02-21T03:45:06;223.95;;;79.28;;
51296;SDS011;37380;45.186;9.792;2024-02-21T03:47:33;166.80;;;77.28;;
51296;SDS011;37380;45.186;9.792;2024-02-21T03:50:00;219.82;;;82.78;;
51296;SDS011;37380;45.186;9.792;2024-02-21T03:52:28;141.60;;;83.45;;
51296;SDS011;37380;45.186;9.792;2024-02-21T03:54:55;155.80;;;75.75;;
51296;SDS011;37380;45.186;9.792;2024-02-21T03:57:22;161.27;;;78.18;;
51296;SDS011;37380;45.186;9.792;2024-02-21T03:59:52;184.82;;;81.95;;
51296;SDS011;37380;45.186;9.792;2024-02-21T04:02:19;196.80;;;82.38;;
51296;SDS011;37380;45.186;9.792;2024-02-21T04:04:46;166.10;;;87.63;;
51296;SDS011;37380;45.186;9.792;2024-02-21T04:07:16;176.38;;;89.70;;
51296;SDS011;37380;45.186;9.792;2024-02-21T04:09:43;249.43;;;88.45;;
51296;SDS011;37380;45.186;9.792;2024-02-21T04:12:10;180.82;;;85.07;;
51296;SDS011;37380;45.186;9.792;2024-02-21T04:14:37;194.18;;;87.57;;
51296;SDS011;37380;45.186;9.792;2024-02-21T04:17:08;147.13;;;88.38;;
51296;SDS011;37380;45.186;9.792;2024-02-21T04:19:35;122.15;;;85.13;;
51296;SDS011;37380;45.186;9.792;2024-02-21T04:22:02;210.95;;;88.63;;
51296;SDS011;37380;45.186;9.792;2024-02-21T04:24:29;140.73;;;84.72;;
51296;SDS011;37380;45.186;9.792;2024-02-21T04:26:56;189.98;;;83.18;;
51296;SDS011;37380;45.186;9.792;2024-02-21T04:29:23;140.30;;;86.38;;
51296;SDS011;37380;45.186;9.792;2024-02-21T04:31:50;174.38;;;86.10;;
51296;SDS011;37380;45.186;9.792;2024-02-21T04:34:17;153.77;;;85.63;;
51296;SDS011;37380;45.186;9.792;2024-02-21T04:36:45;132.73;;;89.28;;
51296;SDS011;37380;45.186;9.792;2024-02-21T04:39:12;127.72;;;91.45;;
51296;SDS011;37380;45.186;9.792;2024-02-21T04:41:39;138.68;;;94.50;;
51296;SDS011;37380;45.186;9.792;2024-02-21T04:44:06;161.55;;;100.22;;
51296;SDS011;37380;45.186;9.792;2024-02-21T04:46:33;159.85;;;94.30;;
51296;SDS011;37380;45.186;9.792;2024-02-21T04:49:00;220.77;;;97.00;;
51296;SDS011;37380;45.186;9.792;2024-02-21T04:51:27;294.88;;;106.82;;
51296;SDS011;37380;45.186;9.792;2024-02-21T04:53:54;292.17;;;105.70;;
51296;SDS011;37380;45.186;9.792;2024-02-21T04:56:21;234.80;;;102.65;;
51296;SDS011;37380;45.186;9.792;2024-02-21T04:58:48;267.00;;;104.05;;
51296;SDS011;37380;45.186;9.792;2024-02-21T05:01:15;237.80;;;103.53;;
51296;SDS011;37380;45.186;9.792;2024-02-21T05:03:42;362.50;;;112.10;;
51296;SDS011;37380;45.186;9.792;2024-02-21T05:06:09;327.08;;;111.00;;
51296;SDS011;37380;45.186;9.792;2024-02-21T05:08:36;327.77;;;115.90;;
51296;SDS011;37380;45.186;9.792;2024-02-21T05:11:03;222.85;;;101.72;;
51296;SDS011;37380;45.186;9.792;2024-02-21T05:13:30;220.35;;;99.57;;
51296;SDS011;37380;45.186;9.792;2024-02-21T05:15:57;156.20;;;94.60;;
51296;SDS011;37380;45.186;9.792;2024-02-21T05:18:28;179.63;;;91.15;;
51296;SDS011;37380;45.186;9.792;2024-02-21T05:20:55;253.60;;;97.28;;
51296;SDS011;37380;45.186;9.792;2024-02-21T05:23:22;302.73;;;95.28;;
51296;SDS011;37380;45.186;9.792;2024-02-21T05:25:49;152.30;;;91.78;;
51296;SDS011;37380;45.186;9.792;2024-02-21T05:28:16;146.13;;;86.60;;
51296;SDS011;37380;45.186;9.792;2024-02-21T05:30:43;202.77;;;91.68;;
51296;SDS011;37380;45.186;9.792;2024-02-21T05:33:10;163.65;;;87.50;;
51296;SDS011;37380;45.186;9.792;2024-02-21T05:35:37;139.52;;;82.28;;
51296;SDS011;37380;45.186;9.792;2024-02-21T05:38:04;168.15;;;84.05;;
51296;SDS011;37380;45.186;9.792;2024-02-21T05:40:38;142.30;;;78.45;;
51296;SDS011;37380;45.186;9.792;2024-02-21T05:43:05;180.02;;;85.40;;
51296;SDS011;37380;45.186;9.792;2024-02-21T05:45:32;142.15;;;85.65;;
51296;SDS011;37380;45.186;9.792;2024-02-21T05:47:58;109.55;;;91.50;;
51296;SDS011;37380;45.186;9.792;2024-02-21T05:50:26;117.00;;;94.25;;
51296;SDS011;37380;45.186;9.792;2024-02-21T05:52:54;113.50;;;88.47;;
51296;SDS011;37380;45.186;9.792;2024-02-21T05:55:25;123.95;;;89.32;;
51296;SDS011;37380;45.186;9.792;2024-02-21T05:57:53;115.45;;;85.85;;
51296;SDS011;37380;45.186;9.792;2024-02-21T06:00:21;148.52;;;90.07;;
51296;SDS011;37380;45.186;9.792;2024-02-21T06:02:48;139.68;;;88.88;;
51296;SDS011;37380;45.186;9.792;2024-02-21T06:05:16;162.82;;;87.95;;
51296;SDS011;37380;45.186;9.792;2024-02-21T06:07:43;130.43;;;89.82;;
51296;SDS011;37380;45.186;9.792;2024-02-21T06:10:10;157.75;;;90.55;;
51296;SDS011;37380;45.186;9.792;2024-02-21T06:12:38;195.20;;;93.22;;
51296;SDS011;37380;45.186;9.792;2024-02-21T06:15:05;246.98;;;96.88;;
51296;SDS011;37380;45.186;9.792;2024-02-21T06:17:32;296.98;;;104.15;;
51296;SDS011;37380;45.186;9.792;2024-02-21T06:19:59;304.15;;;104.32;;
51296;SDS011;37380;45.186;9.792;2024-02-21T06:22:27;328.13;;;104.85;;
51296;SDS011;37380;45.186;9.792;2024-02-21T06:24:54;289.58;;;101.28;;
51296;SDS011;37380;45.186;9.792;2024-02-21T06:27:21;316.55;;;103.00;;
51296;SDS011;37380;45.186;9.792;2024-02-21T06:29:48;272.75;;;97.32;;
51296;SDS011;37380;45.186;9.792;2024-02-21T06:32:15;187.90;;;94.65;;
51296;SDS011;37380;45.186;9.792;2024-02-21T06:34:42;156.60;;;92.63;;
51296;SDS011;37380;45.186;9.792;2024-02-21T06:37:09;119.45;;;91.40;;
51296;SDS011;37380;45.186;9.792;2024-02-21T06:39:37;173.60;;;93.07;;
51296;SDS011;37380;45.186;9.792;2024-02-21T06:42:04;163.05;;;94.03;;
51296;SDS011;37380;45.186;9.792;2024-02-21T06:44:31;136.88;;;91.30;;
51296;SDS011;37380;45.186;9.792;2024-02-21T06:47:01;157.48;;;95.65;;
51296;SDS011;37380;45.186;9.792;2024-02-21T06:49:29;108.97;;;88.75;;
51296;SDS011;37380;45.186;9.792;2024-02-21T06:51:56;108.15;;;86.88;;
51296;SDS011;37380;45.186;9.792;2024-02-21T06:54:23;101.65;;;86.88;;
51296;SDS011;37380;45.186;9.792;2024-02-21T06:56:50;97.00;;;84.05;;
51296;SDS011;37380;45.186;9.792;2024-02-21T06:59:17;95.25;;;81.28;;
51296;SDS011;37380;45.186;9.792;2024-02-21T07:01:47;101.93;;;83.72;;
51296;SDS011;37380;45.186;9.792;2024-02-21T07:04:16;96.13;;;79.75;;
51296;SDS011;37380;45.186;9.792;2024-02-21T07:06:43;90.47;;;76.53;;
51296;SDS011;37380;45.186;9.792;2024-02-21T07:09:10;88.53;;;71.80;;
51296;SDS011;37380;45.186;9.792;2024-02-21T07:11:38;87.85;;;71.65;;
51296;SDS011;37380;45.186;9.792;2024-02-21T07:14:05;81.57;;;71.55;;
51296;SDS011;37380;45.186;9.792;2024-02-21T07:16:33;88.22;;;71.00;;
51296;SDS011;37380;45.186;9.792;2024-02-21T07:19:00;80.30;;;70.13;;
51296;SDS011;37380;45.186;9.792;2024-02-21T07:21:27;75.10;;;65.85;;
51296;SDS011;37380;45.186;9.792;2024-02-21T07:23:54;79.78;;;67.20;;
51296;SDS011;37380;45.186;9.792;2024-02-21T07:26:21;76.80;;;67.28;;
51296;SDS011;37380;45.186;9.792;2024-02-21T07:28:49;79.57;;;69.95;;
51296;SDS011;37380;45.186;9.792;2024-02-21T07:31:16;78.32;;;69.80;;
51296;SDS011;37380;45.186;9.792;2024-02-21T07:33:45;74.32;;;66.43;;
51296;SDS011;37380;45.186;9.792;2024-02-21T07:36:12;80.60;;;68.70;;
51296;SDS011;37380;45.186;9.792;2024-02-21T07:38:41;74.47;;;66.53;;
51296;SDS011;37380;45.186;9.792;2024-02-21T07:41:09;73.30;;;65.32;;
51296;SDS011;37380;45.186;9.792;2024-02-21T07:43:36;79.72;;;66.03;;
51296;SDS011;37380;45.186;9.792;2024-02-21T07:46:03;72.05;;;64.13;;
51296;SDS011;37380;45.186;9.792;2024-02-21T07:48:30;65.13;;;58.50;;
51296;SDS011;37380;45.186;9.792;2024-02-21T07:51:01;62.00;;;55.28;;
51296;SDS011;37380;45.186;9.792;2024-02-21T07:53:28;64.35;;;57.38;;
51296;SDS011;37380;45.186;9.792;2024-02-21T07:55:54;65.38;;;58.38;;
51296;SDS011;37380;45.186;9.792;2024-02-21T07:58:22;71.53;;;54.17;;
51296;SDS011;37380;45.186;9.792;2024-02-21T08:00:49;61.90;;;55.35;;
51296;SDS011;37380;45.186;9.792;2024-02-21T08:03:17;62.03;;;54.58;;
51296;SDS011;37380;45.186;9.792;2024-02-21T08:05:44;70.28;;;59.70;;
51296;SDS011;37380;45.186;9.792;2024-02-21T08:08:12;59.08;;;52.95;;
51296;SDS011;37380;45.186;9.792;2024-02-21T08:10:45;55.78;;;46.25;;
51296;SDS011;37380;45.186;9.792;2024-02-21T08:13:12;56.33;;;41.45;;
51296;SDS011;37380;45.186;9.792;2024-02-21T08:15:39;49.40;;;42.67;;
51296;SDS011;37380;45.186;9.792;2024-02-21T08:18:08;56.08;;;46.00;;
51296;SDS011;37380;45.186;9.792;2024-02-21T08:20:35;51.80;;;43.35;;
51296;SDS011;37380;45.186;9.792;2024-02-21T08:23:02;51.42;;;43.03;;
51296;SDS011;37380;45.186;9.792;2024-02-21T08:25:30;47.40;;;41.20;;
51296;SDS011;37380;45.186;9.792;2024-02-21T08:27:58;50.80;;;41.63;;
51296;SDS011;37380;45.186;9.792;2024-02-21T08:30:26;45.38;;;33.15;;
51296;SDS011;37380;45.186;9.792;2024-02-21T08:32:53;38.50;;;31.15;;
51296;SDS011;37380;45.186;9.792;2024-02-21T08:35:21;38.45;;;32.08;;
51296;SDS011;37380;45.186;9.792;2024-02-21T08:37:51;42.13;;;33.85;;
51296;SDS011;37380;45.186;9.792;2024-02-21T08:40:18;43.80;;;28.00;;
51296;SDS011;37380;45.186;9.792;2024-02-21T08:42:47;38.50;;;29.05;;
51296;SDS011;37380;45.186;9.792;2024-02-21T08:45:15;49.97;;;29.50;;
51296;SDS011;37380;45.186;9.792;2024-02-21T08:47:46;32.65;;;28.70;;
51296;SDS011;37380;45.186;9.792;2024-02-21T08:50:15;50.13;;;28.33;;
51296;SDS011;37380;45.186;9.792;2024-02-21T08:52:53;44.05;;;28.88;;
51296;SDS011;37380;45.186;9.792;2024-02-21T08:55:21;37.15;;;29.77;;
51296;SDS011;37380;45.186;9.792;2024-02-21T08:57:51;38.08;;;31.13;;
51296;SDS011;37380;45.186;9.792;2024-02-21T09:00:18;42.97;;;29.73;;
51296;SDS011;37380;45.186;9.792;2024-02-21T09:02:49;38.20;;;28.15;;
51296;SDS011;37380;45.186;9.792;2024-02-21T09:05:16;42.03;;;30.27;;
51296;SDS011;37380;45.186;9.792;2024-02-21T09:07:43;46.60;;;31.70;;
51296;SDS011;37380;45.186;9.792;2024-02-21T09:10:10;39.65;;;30.58;;
51296;SDS011;37380;45.186;9.792;2024-02-21T09:12:38;43.22;;;30.60;;
51296;SDS011;37380;45.186;9.792;2024-02-21T09:15:05;35.40;;;29.08;;
51296;SDS011;37380;45.186;9.792;2024-02-21T09:17:32;46.60;;;31.90;;
51296;SDS011;37380;45.186;9.792;2024-02-21T09:19:59;44.33;;;31.88;;
51296;SDS011;37380;45.186;9.792;2024-02-21T09:22:30;48.20;;;31.48;;
51296;SDS011;37380;45.186;9.792;2024-02-21T09:25:01;45.83;;;33.80;;
51296;SDS011;37380;45.186;9.792;2024-02-21T09:27:30;50.60;;;35.33;;
51296;SDS011;37380;45.186;9.792;2024-02-21T09:29:57;45.72;;;32.78;;
51296;SDS011;37380;45.186;9.792;2024-02-21T09:32:24;50.78;;;37.58;;
51296;SDS011;37380;45.186;9.792;2024-02-21T09:34:51;53.97;;;40.17;;
51296;SDS011;37380;45.186;9.792;2024-02-21T09:37:25;55.83;;;39.92;;
51296;SDS011;37380;45.186;9.792;2024-02-21T09:39:53;51.95;;;37.67;;
51296;SDS011;37380;45.186;9.792;2024-02-21T09:42:20;53.97;;;37.88;;
51296;SDS011;37380;45.186;9.792;2024-02-21T09:44:48;63.10;;;39.88;;
51296;SDS011;37380;45.186;9.792;2024-02-21T09:47:19;59.15;;;41.58;;
51296;SDS011;37380;45.186;9.792;2024-02-21T09:49:51;62.97;;;45.63;;
51296;SDS011;37380;45.186;9.792;2024-02-21T09:52:18;53.05;;;43.42;;
51296;SDS011;37380;45.186;9.792;2024-02-21T09:54:47;68.03;;;46.08;;
51296;SDS011;37380;45.186;9.792;2024-02-21T09:57:15;67.43;;;48.38;;
51296;SDS011;37380;45.186;9.792;2024-02-21T09:59:43;68.72;;;50.40;;
51296;SDS011;37380;45.186;9.792;2024-02-21T10:02:12;70.65;;;47.40;;
51296;SDS011;37380;45.186;9.792;2024-02-21T10:04:40;70.50;;;48.63;;
51296;SDS011;37380;45.186;9.792;2024-02-21T10:07:07;65.78;;;51.20;;
51296;SDS011;37380;45.186;9.792;2024-02-21T10:09:36;67.30;;;50.97;;
51296;SDS011;37380;45.186;9.792;2024-02-21T10:12:09;66.63;;;52.30;;
51296;SDS011;37380;45.186;9.792;2024-02-21T10:14:39;73.97;;;52.58;;
51296;SDS011;37380;45.186;9.792;2024-02-21T10:17:06;74.47;;;54.30;;
51296;SDS011;37380;45.186;9.792;2024-02-21T10:19:38;80.50;;;54.45;;
51296;SDS011;37380;45.186;9.792;2024-02-21T10:22:08;81.95;;;57.45;;
51296;SDS011;37380;45.186;9.792;2024-02-21T10:24:36;72.97;;;53.20;;
51296;SDS011;37380;45.186;9.792;2024-02-21T10:27:09;61.70;;;45.50;;
51296;SDS011;37380;45.186;9.792;2024-02-21T10:29:39;74.00;;;51.40;;
51296;SDS011;37380;45.186;9.792;2024-02-21T10:32:12;65.40;;;52.05;;
51296;SDS011;37380;45.186;9.792;2024-02-21T10:34:41;66.38;;;51.88;;
51296;SDS011;37380;45.186;9.792;2024-02-21T10:37:11;70.45;;;52.70;;
51296;SDS011;37380;45.186;9.792;2024-02-21T10:39:42;72.68;;;51.22;;
51296;SDS011;37380;45.186;9.792;2024-02-21T10:42:11;65.95;;;48.65;;
51296;SDS011;37380;45.186;9.792;2024-02-21T10:44:40;68.95;;;50.90;;
51296;SDS011;37380;45.186;9.792;2024-02-21T10:47:09;71.20;;;50.88;;
51296;SDS011;37380;45.186;9.792;2024-02-21T10:49:41;71.90;;;47.33;;
51296;SDS011;37380;45.186;9.792;2024-02-21T10:53:01;66.25;;;47.97;;
51296;SDS011;37380;45.186;9.792;2024-02-21T10:55:40;62.55;;;47.20;;
51296;SDS011;37380;45.186;9.792;2024-02-21T10:58:11;65.95;;;46.53;;
51296;SDS011;37380;45.186;9.792;2024-02-21T11:00:38;65.72;;;47.38;;
51296;SDS011;37380;45.186;9.792;2024-02-21T11:03:07;64.85;;;45.67;;
51296;SDS011;37380;45.186;9.792;2024-02-21T11:05:34;59.58;;;45.22;;
51296;SDS011;37380;45.186;9.792;2024-02-21T11:08:03;65.93;;;47.30;;
51296;SDS011;37380;45.186;9.792;2024-02-21T11:10:32;57.33;;;41.03;;
51296;SDS011;37380;45.186;9.792;2024-02-21T11:13:07;56.95;;;45.28;;
51296;SDS011;37380;45.186;9.792;2024-02-21T11:15:36;55.65;;;40.92;;
51296;SDS011;37380;45.186;9.792;2024-02-21T11:18:03;58.60;;;45.13;;
51296;SDS011;37380;45.186;9.792;2024-02-21T11:20:37;67.97;;;47.03;;
51296;SDS011;37380;45.186;9.792;2024-02-21T11:23:05;61.85;;;47.70;;
51296;SDS011;37380;45.186;9.792;2024-02-21T11:25:33;65.35;;;49.58;;
51296;SDS011;37380;45.186;9.792;2024-02-21T11:28:02;62.53;;;49.30;;
51296;SDS011;37380;45.186;9.792;2024-02-21T11:30:30;69.57;;;50.75;;
51296;SDS011;37380;45.186;9.792;2024-02-21T11:33:00;72.65;;;52.22;;
51296;SDS011;37380;45.186;9.792;2024-02-21T11:35:32;68.55;;;52.28;;
51296;SDS011;37380;45.186;9.792;2024-02-21T11:38:13;70.72;;;51.05;;
51296;SDS011;37380;45.186;9.792;2024-02-21T11:40:44;71.63;;;50.80;;
51296;SDS011;37380;45.186;9.792;2024-02-21T11:43:12;70.65;;;50.78;;
51296;SDS011;37380;45.186;9.792;2024-02-21T11:45:39;75.03;;;53.78;;
51296;SDS011;37380;45.186;9.792;2024-02-21T11:48:06;56.72;;;47.17;;
51296;SDS011;37380;45.186;9.792;2024-02-21T11:50:34;69.57;;;51.88;;
51296;SDS011;37380;45.186;9.792;2024-02-21T11:53:03;61.25;;;46.95;;
51296;SDS011;37380;45.186;9.792;2024-02-21T11:55:30;63.95;;;47.33;;
51296;SDS011;37380;45.186;9.792;2024-02-21T11:57:57;64.05;;;47.42;;
51296;SDS011;37380;45.186;9.792;2024-02-21T12:00:25;66.93;;;49.30;;
51296;SDS011;37380;45.186;9.792;2024-02-21T12:02:52;70.63;;;50.33;;
51296;SDS011;37380;45.186;9.792;2024-02-21T12:05:21;73.50;;;51.95;;
51296;SDS011;37380;45.186;9.792;2024-02-21T12:07:48;76.72;;;52.47;;
51296;SDS011;37380;45.186;9.792;2024-02-21T12:10:15;73.47;;;54.65;;
51296;SDS011;37380;45.186;9.792;2024-02-21T12:12:42;73.55;;;52.42;;
51296;SDS011;37380;45.186;9.792;2024-02-21T12:15:09;70.95;;;51.95;;
51296;SDS011;37380;45.186;9.792;2024-02-21T12:17:37;69.25;;;52.88;;
51296;SDS011;37380;45.186;9.792;2024-02-21T12:20:06;71.38;;;51.20;;
51296;SDS011;37380;45.186;9.792;2024-02-21T12:22:38;65.65;;;50.05;;
51296;SDS011;37380;45.186;9.792;2024-02-21T12:25:18;66.07;;;51.60;;
51296;SDS011;37380;45.186;9.792;2024-02-21T12:27:47;69.72;;;51.33;;
51296;SDS011;37380;45.186;9.792;2024-02-21T12:30:14;67.95;;;50.97;;
51296;SDS011;37380;45.186;9.792;2024-02-21T12:32:45;68.18;;;46.20;;
51296;SDS011;37380;45.186;9.792;2024-02-21T12:35:12;59.55;;;48.00;;
51296;SDS011;37380;45.186;9.792;2024-02-21T12:37:40;64.57;;;44.35;;
51296;SDS011;37380;45.186;9.792;2024-02-21T12:40:08;61.78;;;45.28;;
51296;SDS011;37380;45.186;9.792;2024-02-21T12:42:37;66.63;;;48.85;;
51296;SDS011;37380;45.186;9.792;2024-02-21T12:45:05;64.15;;;48.97;;
51296;SDS011;37380;45.186;9.792;2024-02-21T12:47:33;64.05;;;48.03;;
51296;SDS011;37380;45.186;9.792;2024-02-21T12:50:00;66.05;;;49.35;;
51296;SDS011;37380;45.186;9.792;2024-02-21T12:52:30;61.30;;;45.97;;
51296;SDS011;37380;45.186;9.792;2024-02-21T12:54:58;66.80;;;49.65;;
51296;SDS011;37380;45.186;9.792;2024-02-21T12:57:25;58.63;;;43.53;;
51296;SDS011;37380;45.186;9.792;2024-02-21T12:59:54;54.75;;;42.10;;
51296;SDS011;37380;45.186;9.792;2024-02-21T13:02:21;59.58;;;46.53;;
51296;SDS011;37380;45.186;9.792;2024-02-21T13:04:48;70.40;;;44.63;;
51296;SDS011;37380;45.186;9.792;2024-02-21T13:07:16;64.47;;;46.55;;
51296;SDS011;37380;45.186;9.792;2024-02-21T13:09:43;56.45;;;42.63;;
51296;SDS011;37380;45.186;9.792;2024-02-21T13:12:10;63.30;;;44.10;;
51296;SDS011;37380;45.186;9.792;2024-02-21T13:14:38;59.28;;;42.30;;
51296;SDS011;37380;45.186;9.792;2024-02-21T13:17:06;54.03;;;39.03;;
51296;SDS011;37380;45.186;9.792;2024-02-21T13:19:34;61.15;;;41.22;;
51296;SDS011;37380;45.186;9.792;2024-02-21T13:22:01;67.53;;;46.40;;
51296;SDS011;37380;45.186;9.792;2024-02-21T13:24:30;62.60;;;46.78;;
51296;SDS011;37380;45.186;9.792;2024-02-21T13:26:57;63.42;;;45.78;;
51296;SDS011;37380;45.186;9.792;2024-02-21T13:29:24;65.72;;;46.95;;
51296;SDS011;37380;45.186;9.792;2024-02-21T13:31:51;61.70;;;47.08;;
51296;SDS011;37380;45.186;9.792;2024-02-21T13:34:19;76.05;;;50.78;;
51296;SDS011;37380;45.186;9.792;2024-02-21T13:36:46;62.63;;;43.75;;
51296;SDS011;37380;45.186;9.792;2024-02-21T13:42:48;67.43;;;47.75;;
51296;SDS011;37380;45.186;9.792;2024-02-21T13:45:18;64.97;;;49.88;;
51296;SDS011;37380;45.186;9.792;2024-02-21T13:47:46;66.75;;;48.35;;
51296;SDS011;37380;45.186;9.792;2024-02-21T13:50:14;63.05;;;45.55;;
51296;SDS011;37380;45.186;9.792;2024-02-21T13:52:42;66.40;;;49.40;;
51296;SDS011;37380;45.186;9.792;2024-02-21T13:55:11;77.10;;;51.28;;
51296;SDS011;37380;45.186;9.792;2024-02-21T13:57:38;63.10;;;46.60;;
51296;SDS011;37380;45.186;9.792;2024-02-21T14:00:05;63.97;;;46.95;;
51296;SDS011;37380;45.186;9.792;2024-02-21T14:02:40;59.38;;;44.63;;
51296;SDS011;37380;45.186;9.792;2024-02-21T14:05:07;61.08;;;45.88;;
51296;SDS011;37380;45.186;9.792;2024-02-21T14:07:35;61.05;;;44.80;;
51296;SDS011;37380;45.186;9.792;2024-02-21T14:10:03;64.15;;;45.85;;
51296;SDS011;37380;45.186;9.792;2024-02-21T14:12:30;60.67;;;45.00;;
51296;SDS011;37380;45.186;9.792;2024-02-21T14:14:58;68.07;;;45.20;;
51296;SDS011;37380;45.186;9.792;2024-02-21T14:17:26;60.40;;;44.88;;
51296;SDS011;37380;45.186;9.792;2024-02-21T14:19:53;65.07;;;48.00;;
51296;SDS011;37380;45.186;9.792;2024-02-21T14:22:20;68.43;;;47.58;;
51296;SDS011;37380;45.186;9.792;2024-02-21T14:24:47;64.40;;;46.88;;